createdAt,value
2019-05-19T00:00:07.005Z,99313.09
2019-05-19T00:02:35.481Z,99773.16
2019-05-19T00:05:05.862Z,99768.27
2019-05-19T00:07:34.386Z,99767.41
2019-05-19T00:10:03.328Z,99764.43
2019-05-19T00:12:31.683Z,99770.31
2019-05-19T00:15:00.123Z,99771.45
2019-05-19T00:17:28.546Z,99768.84
2019-05-19T00:19:57.034Z,99768.80
2019-05-19T00:22:25.459Z,99761.66
2019-05-19T00:24:53.888Z,99760.66
2019-05-19T00:27:22.300Z,99766.63
2019-05-19T00:29:50.717Z,99759.34
2019-05-19T00:32:19.228Z,99755.06
2019-05-19T00:34:47.684Z,99753.85
2019-05-19T00:37:16.119Z,99749.33
2019-05-19T00:39:44.515Z,99742.89
2019-05-19T00:42:12.937Z,99752.31
2019-05-19T00:44:41.369Z,99748.05
2019-05-19T00:47:09.948Z,99745.10
2019-05-19T00:49:41.498Z,99741.75
2019-05-19T00:52:08.858Z,99740.06
2019-05-19T00:54:37.271Z,99742.23
2019-05-19T00:57:06.525Z,99745.66
2019-05-19T00:59:35.676Z,99737.55
2019-05-19T01:02:04.217Z,99746.57
2019-05-19T01:04:32.649Z,99736.34
2019-05-19T01:07:01.251Z,99735.91
2019-05-19T01:09:29.694Z,99734.62
2019-05-19T01:11:58.486Z,99738.11
2019-05-19T01:14:26.974Z,99738.66
2019-05-19T01:16:55.404Z,99742.67
2019-05-19T01:19:23.803Z,99741.75
2019-05-19T01:21:52.266Z,99740.09
2019-05-19T01:24:20.702Z,99744.84
2019-05-19T01:26:49.090Z,99745.73
2019-05-19T01:29:17.502Z,99752.68
2019-05-19T01:31:46.057Z,99746.20
2019-05-19T01:34:14.469Z,99742.45
2019-05-19T01:36:42.898Z,99741.16
2019-05-19T01:39:11.371Z,99736.14
2019-05-19T01:41:39.872Z,99737.06
2019-05-19T01:44:08.284Z,99735.91
2019-05-19T01:46:36.716Z,99730.42
2019-05-19T01:49:05.184Z,99729.20
2019-05-19T01:51:33.629Z,99729.14
2019-05-19T01:54:02.050Z,99725.34
2019-05-19T01:56:30.476Z,99724.29
2019-05-19T01:58:58.879Z,99723.81
2019-05-19T02:01:27.369Z,99728.22
2019-05-19T02:03:55.841Z,99720.97
2019-05-19T02:06:24.360Z,99726.90
2019-05-19T02:08:52.782Z,99729.13
2019-05-19T02:11:21.176Z,99723.30
2019-05-19T02:13:49.582Z,99725.88
2019-05-19T02:16:18.008Z,99727.13
2019-05-19T02:18:46.428Z,99722.86
2019-05-19T02:21:14.888Z,99724.42
2019-05-19T02:23:43.313Z,99719.65
2019-05-19T02:26:11.791Z,99718.77
2019-05-19T02:28:40.225Z,99721.34
2019-05-19T02:31:08.694Z,99713.82
2019-05-19T02:33:37.190Z,99719.59
2019-05-19T02:36:05.595Z,99717.25
2019-05-19T02:38:34.054Z,99712.22
2019-05-19T02:41:04.789Z,99710.09
2019-05-19T02:43:34.431Z,99713.83
2019-05-19T02:46:05.019Z,99720.10
2019-05-19T02:48:34.460Z,99715.80
2019-05-19T02:51:04.495Z,99716.62
2019-05-19T02:53:33.371Z,99714.45
2019-05-19T02:56:03.209Z,99714.92
2019-05-19T02:58:32.645Z,99715.39
2019-05-19T03:01:01.096Z,99710.31
2019-05-19T03:03:29.563Z,99718.00
2019-05-19T03:05:57.982Z,99714.23
2019-05-19T03:08:26.390Z,99710.87
2019-05-19T03:10:54.894Z,99705.09
2019-05-19T03:13:23.302Z,99714.72
2019-05-19T03:15:51.712Z,99715.68
2019-05-19T03:18:20.114Z,99710.20
2019-05-19T03:20:48.648Z,99708.71
2019-05-19T03:23:17.075Z,99702.86
2019-05-19T03:25:45.572Z,99704.97
2019-05-19T03:28:13.976Z,99700.42
2019-05-19T03:30:59.424Z,99699.60
2019-05-19T03:33:29.463Z,99699.69
2019-05-19T03:35:57.944Z,99703.56
2019-05-19T03:38:26.382Z,99707.11
2019-05-19T03:40:54.873Z,99716.95
2019-05-19T03:43:23.298Z,99716.38
2019-05-19T03:45:51.702Z,99713.98
2019-05-19T03:48:20.192Z,99705.70
2019-05-19T03:50:48.716Z,99703.95
2019-05-19T03:53:17.180Z,99711.72
2019-05-19T03:55:45.591Z,99716.01
2019-05-19T03:58:14.069Z,99714.65
2019-05-19T04:00:42.681Z,99719.27
2019-05-19T04:03:11.152Z,99720.11
2019-05-19T04:05:39.581Z,99715.03
2019-05-19T04:08:08.050Z,99716.48
2019-05-19T04:10:36.536Z,99712.84
2019-05-19T04:13:05.021Z,99715.48
2019-05-19T04:15:33.520Z,99718.23
2019-05-19T04:18:01.952Z,99720.22
2019-05-19T04:20:30.393Z,99722.36
2019-05-19T04:22:58.884Z,99717.53
2019-05-19T04:25:27.471Z,99711.86
2019-05-19T04:27:55.858Z,99719.10
2019-05-19T04:30:24.354Z,99717.87
2019-05-19T04:32:52.796Z,99714.45
2019-05-19T04:35:21.274Z,99717.80
2019-05-19T04:37:49.685Z,99714.66
2019-05-19T04:40:18.136Z,99706.11
2019-05-19T04:42:46.544Z,99708.19
2019-05-19T04:45:15.115Z,99712.47
2019-05-19T04:47:43.557Z,99714.66
2019-05-19T04:50:12.291Z,99721.72
2019-05-19T04:52:40.706Z,99716.34
2019-05-19T04:55:09.451Z,99715.55
2019-05-19T04:57:37.935Z,99711.66
2019-05-19T05:00:07.202Z,99708.62
2019-05-19T05:02:35.759Z,99715.56
2019-05-19T05:05:05.632Z,99712.53
2019-05-19T05:07:34.039Z,99719.77
2019-05-19T05:10:02.527Z,99715.81
2019-05-19T05:12:30.929Z,99715.79
2019-05-19T05:14:59.359Z,99715.25
2019-05-19T05:17:27.887Z,99719.13
2019-05-19T05:19:56.303Z,99717.77
2019-05-19T05:22:24.762Z,99715.00
2019-05-19T05:24:53.203Z,99719.10
2019-05-19T05:27:21.607Z,99718.31
2019-05-19T05:29:50.014Z,99722.60
2019-05-19T05:32:18.459Z,99717.84
2019-05-19T05:34:46.865Z,99718.97
2019-05-19T05:37:15.277Z,99714.50
2019-05-19T05:39:43.701Z,99713.58
2019-05-19T05:42:12.216Z,99717.55
2019-05-19T05:44:40.650Z,99716.39
2019-05-19T05:47:09.081Z,99715.58
2019-05-19T05:49:37.485Z,99712.42
2019-05-19T05:52:05.958Z,99714.86
2019-05-19T05:54:34.386Z,99717.43
2019-05-19T05:57:02.856Z,99717.02
2019-05-19T05:59:31.289Z,99716.58
2019-05-19T06:01:59.695Z,99708.88
2019-05-19T06:04:28.199Z,99714.80
2019-05-19T06:06:56.732Z,99713.02
2019-05-19T06:09:25.143Z,99714.62
2019-05-19T06:11:53.555Z,99716.23
2019-05-19T06:14:22.035Z,99715.27
2019-05-19T06:16:50.476Z,99713.54
2019-05-19T06:19:18.909Z,99713.89
2019-05-19T06:21:47.317Z,99713.30
2019-05-19T06:24:15.809Z,99714.89
2019-05-19T06:26:44.219Z,99717.40
2019-05-19T06:29:12.648Z,99715.11
2019-05-19T06:31:41.170Z,99714.59
2019-05-19T06:34:09.688Z,99713.25
2019-05-19T06:36:38.087Z,99721.72
2019-05-19T06:39:06.857Z,99720.77
2019-05-19T06:41:35.305Z,99716.84
2019-05-19T06:44:04.262Z,99727.07
2019-05-19T06:46:32.700Z,99727.78
2019-05-19T06:49:01.197Z,99730.59
2019-05-19T06:51:29.604Z,99729.30
2019-05-19T06:53:58.029Z,99733.57
2019-05-19T06:56:26.567Z,99727.91
2019-05-19T06:58:55.002Z,99733.84
2019-05-19T07:01:23.432Z,99741.97
2019-05-19T07:03:51.925Z,99738.52
2019-05-19T07:06:20.422Z,99737.97
2019-05-19T07:08:48.866Z,99737.85
2019-05-19T07:11:17.293Z,99739.44
2019-05-19T07:13:45.808Z,99735.47
2019-05-19T07:16:14.207Z,99739.32
2019-05-19T07:18:42.611Z,99735.38
2019-05-19T07:21:11.129Z,99737.08
2019-05-19T07:23:39.589Z,99739.66
2019-05-19T07:26:08.045Z,99736.63
2019-05-19T07:28:36.481Z,99736.45
2019-05-19T07:31:04.902Z,99737.62
2019-05-19T07:33:33.496Z,99737.02
2019-05-19T07:36:01.928Z,99739.88
2019-05-19T07:38:30.383Z,99734.57
2019-05-19T07:40:58.880Z,99728.08
2019-05-19T07:43:27.347Z,99727.04
2019-05-19T07:45:55.831Z,99725.63
2019-05-19T07:48:24.257Z,99730.66
2019-05-19T07:50:52.686Z,99727.88
2019-05-19T07:53:21.110Z,99727.82
2019-05-19T07:55:49.604Z,99730.32
2019-05-19T07:58:18.191Z,99724.59
2019-05-19T08:00:46.597Z,99726.60
2019-05-19T08:03:15.074Z,99717.44
2019-05-19T08:05:43.515Z,99721.17
2019-05-19T08:08:12.064Z,99722.34
2019-05-19T08:10:40.488Z,99724.42
2019-05-19T08:13:08.895Z,99724.86
2019-05-19T08:15:37.437Z,99723.00
2019-05-19T08:18:06.002Z,99718.99
2019-05-19T08:20:34.408Z,99723.16
2019-05-19T08:23:02.914Z,99722.98
2019-05-19T08:25:31.533Z,99728.77
2019-05-19T08:28:08.554Z,99727.37
2019-05-19T08:30:30.257Z,99730.16
2019-05-19T08:32:58.665Z,99727.05
2019-05-19T08:35:27.144Z,99726.45
2019-05-19T08:37:55.665Z,99728.84
2019-05-19T08:40:24.137Z,99724.88
2019-05-19T08:42:52.658Z,99722.69
2019-05-19T08:45:21.260Z,99726.01
2019-05-19T08:47:49.653Z,99718.56
2019-05-19T08:50:18.133Z,99715.33
2019-05-19T08:52:46.565Z,99712.84
2019-05-19T08:55:15.049Z,99706.47
2019-05-19T08:57:43.515Z,99707.44
2019-05-19T09:00:12.372Z,99708.77
2019-05-19T09:02:40.834Z,99705.43
2019-05-19T09:05:10.172Z,99701.63
2019-05-19T09:07:38.723Z,99698.34
2019-05-19T09:10:10.921Z,99694.81
2019-05-19T09:12:39.533Z,99696.05
2019-05-19T09:15:08.565Z,99698.00
2019-05-19T09:17:36.989Z,99693.67
2019-05-19T09:20:06.261Z,99697.69
2019-05-19T09:22:34.733Z,99693.25
2019-05-19T09:25:03.877Z,99683.55
2019-05-19T09:27:32.321Z,99684.05
2019-05-19T09:30:00.740Z,99691.31
2019-05-19T09:32:29.176Z,99693.05
2019-05-19T09:34:57.694Z,99687.16
2019-05-19T09:37:26.097Z,99682.02
2019-05-19T09:39:54.532Z,99685.64
2019-05-19T09:42:22.991Z,99688.78
2019-05-19T09:44:51.536Z,99677.89
2019-05-19T09:47:19.904Z,99679.49
2019-05-19T09:49:48.461Z,99676.61
2019-05-19T09:52:17.296Z,99679.31
2019-05-19T09:54:46.147Z,99679.16
2019-05-19T09:57:14.733Z,99675.55
2019-05-19T09:59:43.148Z,99671.48
2019-05-19T10:02:11.809Z,99669.66
2019-05-19T10:04:40.248Z,99666.88
2019-05-19T10:07:09.265Z,99668.39
2019-05-19T10:09:47.620Z,99674.87
2019-05-19T10:12:16.025Z,99675.26
2019-05-19T10:14:44.514Z,99666.37
2019-05-19T10:17:12.963Z,99666.64
2019-05-19T10:19:41.392Z,99664.31
2019-05-19T10:22:09.841Z,99671.56
2019-05-19T10:24:38.248Z,99664.17
2019-05-19T10:27:06.806Z,99664.44
2019-05-19T10:29:35.252Z,99663.14
2019-05-19T10:32:03.734Z,99667.80
2019-05-19T10:34:32.275Z,99657.98
2019-05-19T10:37:00.702Z,99663.05
2019-05-19T10:39:29.098Z,99657.77
2019-05-19T10:41:57.523Z,99657.02
2019-05-19T10:44:26.016Z,99652.61
2019-05-19T10:46:54.494Z,99651.37
2019-05-19T10:49:23.011Z,99646.96
2019-05-19T10:51:51.426Z,99651.11
2019-05-19T10:54:19.885Z,99640.52
2019-05-19T10:56:48.414Z,99642.36
2019-05-19T10:59:16.893Z,99642.88
2019-05-19T11:01:45.372Z,99641.59
2019-05-19T11:04:13.796Z,99646.64
2019-05-19T11:06:42.216Z,99639.25
2019-05-19T11:09:10.673Z,99641.46
2019-05-19T11:11:39.098Z,99637.31
2019-05-19T11:14:07.678Z,99635.81
2019-05-19T11:16:36.078Z,99634.65
2019-05-19T11:19:04.616Z,99634.20
2019-05-19T11:21:33.150Z,99624.98
2019-05-19T11:24:01.565Z,99633.47
2019-05-19T11:26:30.024Z,99638.67
2019-05-19T11:28:58.520Z,99630.36
2019-05-19T11:31:26.942Z,99627.84
2019-05-19T11:33:55.522Z,99623.88
2019-05-19T11:36:23.980Z,99623.14
2019-05-19T11:38:52.410Z,99623.38
2019-05-19T11:41:20.830Z,99624.34
2019-05-19T11:43:49.315Z,99618.41
2019-05-19T11:46:17.721Z,99621.46
2019-05-19T11:48:46.221Z,99616.17
2019-05-19T11:51:14.636Z,99622.11
2019-05-19T11:53:43.019Z,99626.75
2019-05-19T11:56:11.780Z,99627.45
2019-05-19T11:58:40.439Z,99620.91
2019-05-19T12:01:08.892Z,99626.41
2019-05-19T12:03:37.302Z,99622.36
2019-05-19T12:06:05.727Z,99620.30
2019-05-19T12:08:34.171Z,99620.54
2019-05-19T12:11:02.587Z,99621.05
2019-05-19T12:13:31.005Z,99625.92
2019-05-19T12:15:59.410Z,99628.17
2019-05-19T12:18:27.853Z,99627.25
2019-05-19T12:20:56.285Z,99621.30
2019-05-19T12:23:24.676Z,99615.93
2019-05-19T12:25:53.116Z,99604.75
2019-05-19T12:28:21.552Z,99608.06
2019-05-19T12:30:49.955Z,99258.69
2019-05-19T12:33:18.433Z,99599.01
2019-05-19T12:35:46.834Z,99603.02
2019-05-19T12:38:15.259Z,99596.69
2019-05-19T12:40:43.689Z,99603.11
2019-05-19T12:43:12.216Z,99577.71
2019-05-19T12:45:40.671Z,99608.70
2019-05-19T12:48:09.037Z,99603.95
2019-05-19T12:50:37.500Z,99604.89
2019-05-19T12:53:05.996Z,99610.29
2019-05-19T12:55:34.640Z,99601.70
2019-05-19T12:58:03.126Z,99600.97
2019-05-19T13:00:31.678Z,99603.02
2019-05-19T13:03:00.100Z,99604.05
2019-05-19T13:05:28.577Z,99602.53
2019-05-19T13:07:57.065Z,99608.67
2019-05-19T13:10:25.479Z,99599.75
2019-05-19T13:12:53.950Z,99592.45
2019-05-19T13:15:23.641Z,99597.50
2019-05-19T13:17:52.395Z,99594.02
2019-05-19T13:20:20.962Z,99598.38
2019-05-19T13:22:49.495Z,99607.05
2019-05-19T13:25:18.046Z,99608.97
2019-05-19T13:27:46.470Z,99610.55
2019-05-19T13:30:15.121Z,99619.09
2019-05-19T13:32:43.619Z,99618.56
2019-05-19T13:35:12.365Z,99620.46
2019-05-19T13:37:40.856Z,99619.46
2019-05-19T13:40:10.061Z,99628.08
2019-05-19T13:42:38.540Z,99632.78
2019-05-19T13:45:07.509Z,99638.67
2019-05-19T13:47:35.987Z,99637.66
2019-05-19T13:50:06.538Z,99647.16
2019-05-19T13:52:35.020Z,99655.45
2019-05-19T13:55:04.649Z,99657.50
2019-05-19T13:57:33.175Z,99670.52
2019-05-19T14:00:01.534Z,99672.81
2019-05-19T14:02:30.049Z,99678.83
2019-05-19T14:04:58.441Z,99675.70
2019-05-19T14:07:52.024Z,99673.33
2019-05-19T14:10:20.531Z,99668.22
2019-05-19T14:12:48.934Z,99664.55
2019-05-19T14:15:17.488Z,99667.63
2019-05-19T14:17:45.916Z,99665.84
2019-05-19T14:20:14.442Z,99661.41
2019-05-19T14:22:42.864Z,99655.89
2019-05-19T14:25:11.562Z,99655.69
2019-05-19T14:27:39.944Z,99660.35
2019-05-19T14:30:09.631Z,99663.55
2019-05-19T14:32:38.029Z,99661.70
2019-05-19T14:35:07.800Z,99668.77
2019-05-19T14:37:36.275Z,99669.49
2019-05-19T14:40:06.325Z,99677.08
2019-05-19T14:42:42.395Z,99671.95
2019-05-19T14:45:11.341Z,99684.27
2019-05-19T14:47:39.748Z,99683.42
2019-05-19T14:50:08.836Z,99684.88
2019-05-19T14:52:37.260Z,99688.94
2019-05-19T14:55:06.425Z,99689.47
2019-05-19T14:57:44.440Z,99698.70
2019-05-19T15:00:06.162Z,99693.97
2019-05-19T15:02:35.225Z,99690.06
2019-05-19T15:05:04.237Z,99691.44
2019-05-19T15:07:32.640Z,99686.24
2019-05-19T15:10:01.065Z,99688.25
2019-05-19T15:12:29.663Z,99682.59
2019-05-19T15:14:58.090Z,99691.44
2019-05-19T15:17:26.575Z,99689.54
2019-05-19T15:19:55.009Z,99688.17
2019-05-19T15:22:23.500Z,99680.47
2019-05-19T15:24:51.987Z,99682.50
2019-05-19T15:27:20.400Z,99680.28
2019-05-19T15:29:48.836Z,99679.92
2019-05-19T15:32:17.258Z,99674.84
2019-05-19T15:34:45.676Z,99671.42
2019-05-19T15:37:14.077Z,99665.45
2019-05-19T15:39:42.519Z,99662.25
2019-05-19T15:42:11.014Z,99655.67
2019-05-19T15:44:39.495Z,99657.73
2019-05-19T15:47:07.984Z,99652.20
2019-05-19T15:49:36.410Z,99648.52
2019-05-19T15:52:06.029Z,99649.55
2019-05-19T15:54:34.961Z,99645.77
2019-05-19T15:57:03.463Z,99647.99
2019-05-19T15:59:31.877Z,99646.84
2019-05-19T16:02:00.334Z,99645.33
2019-05-19T16:04:28.818Z,99632.14
2019-05-19T16:06:57.418Z,99633.05
2019-05-19T16:09:25.824Z,99630.14
2019-05-19T16:11:54.227Z,99632.34
2019-05-19T16:14:22.738Z,99627.02
2019-05-19T16:16:51.143Z,99620.16
2019-05-19T16:19:19.589Z,99611.91
2019-05-19T16:21:48.098Z,99610.11
2019-05-19T16:24:16.555Z,99609.72
2019-05-19T16:26:44.984Z,99604.77
2019-05-19T16:29:13.371Z,99603.48
2019-05-19T16:31:41.793Z,99597.98
2019-05-19T16:34:10.174Z,99596.20
2019-05-19T16:36:38.596Z,99593.55
2019-05-19T16:39:07.865Z,99594.92
2019-05-19T16:41:36.266Z,99601.11
2019-05-19T16:44:04.916Z,99605.44
2019-05-19T16:46:33.397Z,99616.72
2019-05-19T16:49:01.892Z,99610.19
2019-05-19T16:51:30.611Z,99616.03
2019-05-19T16:54:00.674Z,99614.86
2019-05-19T16:56:29.147Z,99616.44
2019-05-19T16:58:57.557Z,99610.36
2019-05-19T17:01:26.000Z,99618.35
2019-05-19T17:03:54.409Z,99612.66
2019-05-19T17:06:22.902Z,99602.09
2019-05-19T17:08:51.311Z,99605.91
2019-05-19T17:11:19.739Z,99604.30
2019-05-19T17:13:48.242Z,99605.47
2019-05-19T17:16:16.634Z,99603.17
2019-05-19T17:18:45.061Z,99608.16
2019-05-19T17:21:13.480Z,99603.33
2019-05-19T17:23:41.903Z,99603.84
2019-05-19T17:26:10.360Z,99613.11
2019-05-19T17:28:38.918Z,99619.66
2019-05-19T17:31:07.878Z,99616.41
2019-05-19T17:33:36.381Z,99614.49
2019-05-19T17:36:04.929Z,99617.22
2019-05-19T17:38:33.466Z,99621.02
2019-05-19T17:41:01.885Z,99619.52
2019-05-19T17:43:30.360Z,99625.03
2019-05-19T17:45:58.794Z,99624.80
2019-05-19T17:48:27.289Z,99634.44
2019-05-19T17:50:55.783Z,99637.66
2019-05-19T17:53:24.269Z,99635.52
2019-05-19T17:55:54.474Z,99642.02
2019-05-19T17:58:23.890Z,99636.42
2019-05-19T18:00:52.373Z,99634.22
2019-05-19T18:03:21.385Z,99642.98
2019-05-19T18:05:49.845Z,99641.55
2019-05-19T18:08:18.309Z,99642.40
2019-05-19T18:10:46.747Z,99648.48
2019-05-19T18:13:15.221Z,99650.62
2019-05-19T18:15:43.692Z,99655.56
2019-05-19T18:18:12.160Z,99660.25
2019-05-19T18:20:40.657Z,99663.55
2019-05-19T18:23:09.162Z,99677.59
2019-05-19T18:25:37.576Z,99676.34
2019-05-19T18:28:06.172Z,99680.17
2019-05-19T18:30:34.727Z,99673.87
2019-05-19T18:33:03.277Z,99683.79
2019-05-19T18:35:31.705Z,99683.22
2019-05-19T18:38:00.129Z,99695.10
2019-05-19T18:40:28.576Z,99701.89
2019-05-19T18:42:57.056Z,99710.17
2019-05-19T18:45:25.479Z,99706.74
2019-05-19T18:47:53.909Z,99709.36
2019-05-19T18:50:22.383Z,99705.36
2019-05-19T18:52:50.842Z,99705.92
2019-05-19T18:55:19.261Z,99704.56
2019-05-19T18:57:47.668Z,99716.10
2019-05-19T19:00:19.153Z,99706.38
2019-05-19T19:02:48.098Z,99713.70
2019-05-19T19:05:16.761Z,99716.30
2019-05-19T19:07:55.287Z,99721.59
2019-05-19T19:10:23.697Z,99725.97
2019-05-19T19:12:52.176Z,99729.79
2019-05-19T19:15:20.673Z,99730.77
2019-05-19T19:17:49.074Z,99733.02
2019-05-19T19:20:17.675Z,99728.00
2019-05-19T19:22:46.071Z,99726.61
2019-05-19T19:25:14.669Z,99727.81
2019-05-19T19:27:43.096Z,99732.72
2019-05-19T19:30:11.655Z,99733.56
2019-05-19T19:32:40.124Z,99740.23
2019-05-19T19:35:09.369Z,99743.36
2019-05-19T19:37:37.777Z,99741.31
2019-05-19T19:40:07.354Z,99747.59
2019-05-19T19:42:35.833Z,99743.50
2019-05-19T19:45:04.927Z,99749.84
2019-05-19T19:47:33.413Z,99755.83
2019-05-19T19:50:01.836Z,99752.00
2019-05-19T19:52:30.320Z,99753.38
2019-05-19T19:54:58.743Z,99755.12
2019-05-19T19:57:27.158Z,99758.41
2019-05-19T19:59:55.564Z,99760.54
2019-05-19T20:02:23.987Z,99759.60
2019-05-19T20:04:52.385Z,99763.43
2019-05-19T20:07:20.790Z,99765.22
2019-05-19T20:09:49.217Z,99763.79
2019-05-19T20:12:17.623Z,99760.58
2019-05-19T20:14:46.197Z,99771.41
2019-05-19T20:17:14.633Z,99764.22
2019-05-19T20:19:43.096Z,99766.14
2019-05-19T20:22:11.583Z,99365.38
2019-05-19T20:24:40.095Z,99765.59
2019-05-19T20:27:08.581Z,99767.92
2019-05-19T20:29:37.011Z,99762.63
2019-05-19T20:32:05.428Z,99763.30
2019-05-19T20:34:33.844Z,99778.82
2019-05-19T20:37:02.257Z,99782.41
2019-05-19T20:39:30.795Z,99787.13
2019-05-19T20:41:59.186Z,99788.37
2019-05-19T20:44:27.658Z,99780.98
2019-05-19T20:46:56.108Z,99776.61
2019-05-19T20:49:24.547Z,99782.31
2019-05-19T20:51:53.344Z,99785.94
2019-05-19T20:54:21.796Z,99783.61
2019-05-19T20:56:50.209Z,99782.63
2019-05-19T20:59:18.696Z,99781.91
2019-05-19T21:01:47.127Z,99786.73
2019-05-19T21:04:15.531Z,99785.44
2019-05-19T21:06:43.981Z,99780.33
2019-05-19T21:09:12.423Z,99780.33
2019-05-19T21:11:40.788Z,99785.05
2019-05-19T21:14:09.247Z,99788.13
2019-05-19T21:16:37.665Z,99784.79
2019-05-19T21:19:06.081Z,99784.17
2019-05-19T21:21:34.586Z,99784.80
2019-05-19T21:24:03.010Z,99780.09
2019-05-19T21:26:31.438Z,99779.02
2019-05-19T21:28:59.849Z,99780.45
2019-05-19T21:31:28.310Z,99780.36
2019-05-19T21:33:56.725Z,99775.43
2019-05-19T21:36:25.140Z,99769.42
2019-05-19T21:38:53.571Z,99770.89
2019-05-19T21:41:22.002Z,99773.42
2019-05-19T21:43:50.483Z,99769.78
2019-05-19T21:46:18.907Z,99760.25
2019-05-19T21:48:47.344Z,99763.77
2019-05-19T21:51:15.766Z,99765.37
2019-05-19T21:53:44.169Z,99767.59
2019-05-19T21:56:12.593Z,99765.45
2019-05-19T21:58:41.012Z,99761.62
2019-05-19T22:01:22.231Z,99765.13
2019-05-19T22:03:39.797Z,99764.02
2019-05-19T22:06:08.247Z,99770.88
2019-05-19T22:08:37.557Z,99773.26
2019-05-19T22:11:05.982Z,99780.06
2019-05-19T22:13:34.457Z,99786.51
2019-05-19T22:16:12.312Z,99783.12
2019-05-19T22:18:33.090Z,99791.05
2019-05-19T22:21:01.489Z,99795.10
2019-05-19T22:23:29.919Z,99793.48
2019-05-19T22:25:58.312Z,99798.01
2019-05-19T22:28:26.804Z,99796.02
2019-05-19T22:30:55.198Z,99793.19
2019-05-19T22:33:23.871Z,99794.11
2019-05-19T22:35:52.288Z,99787.92
2019-05-19T22:38:20.772Z,99793.37
2019-05-19T22:40:49.225Z,99789.77
2019-05-19T22:43:17.640Z,99784.64
2019-05-19T22:45:46.057Z,99781.88
2019-05-19T22:48:14.487Z,99776.84
2019-05-19T22:50:42.895Z,99774.75
2019-05-19T22:53:11.370Z,99778.88
2019-05-19T22:55:39.828Z,99774.77
2019-05-19T22:58:08.237Z,99773.17
2019-05-19T23:00:36.724Z,99769.72
2019-05-19T23:03:05.311Z,99765.83
2019-05-19T23:05:33.829Z,99757.35
2019-05-19T23:08:02.240Z,99749.75
2019-05-19T23:10:30.734Z,99750.22
2019-05-19T23:12:59.218Z,99745.50
2019-05-19T23:15:27.616Z,99742.13
2019-05-19T23:17:56.054Z,99737.92
2019-05-19T23:20:24.448Z,99743.30
2019-05-19T23:22:52.848Z,99747.27
2019-05-19T23:25:21.263Z,99747.02
2019-05-19T23:27:49.762Z,99748.03
2019-05-19T23:30:18.406Z,99750.66
2019-05-19T23:32:46.820Z,99752.56
2019-05-19T23:35:15.457Z,99754.46
2019-05-19T23:37:43.891Z,99752.90
2019-05-19T23:40:12.622Z,99758.77
2019-05-19T23:42:41.112Z,99760.86
2019-05-19T23:45:09.669Z,99753.55
2019-05-19T23:47:38.068Z,99754.34
2019-05-19T23:50:06.837Z,99751.64
2019-05-19T23:52:35.308Z,99752.48
2019-05-19T23:55:05.473Z,99755.02
2019-05-19T23:57:33.876Z,99754.41
